Time;durP1;ratioP1;P1;durP2;ratioP2;P2;SDS_P1;SDS_P2;PMS_P1;PMS_P2;Temp;Humidity;BMP_temperature;BMP_pressure;BME280_temperature;BME280_humidity;BME280_pressure;Samples;Min_cycle;Max_cycle;Signal;HPM_P1;HPM_P2
2021/01/05 00:01:27;;;;;;;154.52;44.05;;;;;;;0.85;100.00;97667.75;5074774;28;20044;-73
2021/01/05 00:03:52;;;;;;;119.90;40.55;;;;;;;0.96;100.00;97659.56;5074210;28;20500;-74
2021/01/05 00:06:18;;;;;;;113.07;41.00;;;;;;;0.88;100.00;97648.69;5073995;28;20116;-74
2021/01/05 00:08:44;;;;;;;131.05;42.55;;;;;;;0.88;100.00;97652.13;5073077;28;20056;-74
2021/01/05 00:11:10;;;;;;;147.75;42.55;;;;;;;0.83;100.00;97653.19;5053767;28;20140;-74
2021/01/05 00:13:36;;;;;;;156.10;41.53;;;;;;;0.87;100.00;97650.44;5054352;28;20067;-73
2021/01/05 00:16:02;;;;;;;157.55;44.30;;;;;;;0.85;100.00;97660.00;5053398;28;20044;-75
2021/01/05 00:18:27;;;;;;;201.80;45.92;;;;;;;0.80;100.00;97659.31;5054383;28;20385;-73
2021/01/05 00:20:53;;;;;;;161.88;42.55;;;;;;;0.83;100.00;97651.44;5054345;28;20099;-73
2021/01/05 00:23:19;;;;;;;170.65;41.35;;;;;;;0.82;100.00;97654.09;5062949;28;20238;-74
2021/01/05 00:25:45;;;;;;;115.55;41.92;;;;;;;0.79;100.00;97667.13;5073074;28;20055;-74
2021/01/05 00:28:11;;;;;;;121.95;40.40;;;;;;;0.76;100.00;97659.50;5073071;28;20041;-73
2021/01/05 00:30:37;;;;;;;128.40;40.72;;;;;;;0.80;100.00;97661.06;5074172;28;20063;-73
2021/01/05 00:33:04;;;;;;;148.70;42.60;;;;;;;0.80;100.00;97650.75;5073265;28;20132;-74
2021/01/05 00:35:35;;;;;;;176.82;43.35;;;;;;;0.83;100.00;97656.63;5074123;28;20044;-73
2021/01/05 00:38:05;;;;;;;144.35;43.72;;;;;;;0.89;100.00;97647.81;5073275;28;20094;-81
2021/01/05 00:40:32;;;;;;;208.05;43.80;;;;;;;0.79;100.00;97639.59;5074150;28;20403;-73
2021/01/05 00:42:58;;;;;;;154.00;41.67;;;;;;;0.86;100.00;97645.34;5072842;28;20049;-74
2021/01/05 00:45:30;;;;;;;144.00;43.05;;;;;;;0.84;100.00;97636.84;5073356;28;20056;-73
2021/01/05 00:47:57;;;;;;;138.53;41.50;;;;;;;0.78;100.00;97643.06;5087824;28;20097;-73
2021/01/05 00:50:23;;;;;;;220.90;43.97;;;;;;;0.82;100.00;97638.63;5093491;28;20465;-74
2021/01/05 00:52:49;;;;;;;163.48;43.35;;;;;;;0.75;100.00;97638.03;5082555;28;20049;-74
2021/01/05 00:55:15;;;;;;;262.55;48.35;;;;;;;0.73;100.00;97641.56;5071598;28;20062;-74
2021/01/05 00:57:42;;;;;;;122.07;41.38;;;;;;;1.10;100.00;97637.50;5078917;28;20124;-74
2021/01/05 01:00:13;;;;;;;184.77;41.92;;;;;;;0.87;100.00;97642.69;5080190;28;20097;-74
2021/01/05 01:02:38;;;;;;;179.88;40.22;;;;;;;0.82;100.00;97639.47;5093538;28;20495;-73
2021/01/05 01:05:05;;;;;;;133.32;39.58;;;;;;;0.86;100.00;97637.59;5087359;28;20051;-80
2021/01/05 01:07:31;;;;;;;185.93;42.15;;;;;;;0.82;100.00;97636.03;5090361;28;20131;-74
2021/01/05 01:09:57;;;;;;;190.20;40.60;;;;;;;0.85;100.00;97638.50;5092553;28;20052;-74
2021/01/05 01:12:24;;;;;;;131.00;40.42;;;;;;;1.02;100.00;97635.25;5086846;28;20281;-73
2021/01/05 01:14:52;;;;;;;129.10;41.38;;;;;;;0.84;100.00;97631.66;5073068;28;20511;-73
2021/01/05 01:17:18;;;;;;;181.88;43.67;;;;;;;0.84;100.00;97626.50;5089459;28;20068;-73
2021/01/05 01:19:44;;;;;;;205.35;43.22;;;;;;;0.93;100.00;97631.31;5092633;28;20043;-74
2021/01/05 01:22:11;;;;;;;158.85;41.00;;;;;;;0.88;100.00;97628.91;5083703;28;20047;-73
2021/01/05 01:24:37;;;;;;;175.45;42.25;;;;;;;0.98;100.00;97621.63;5073140;28;20056;-73
2021/01/05 01:27:03;;;;;;;348.50;46.25;;;;;;;0.85;100.00;97617.84;5089447;28;20064;-80
2021/01/05 01:29:29;;;;;;;163.60;43.33;;;;;;;0.87;100.00;97616.06;5092437;28;20452;-76
2021/01/05 01:31:56;;;;;;;195.25;44.70;;;;;;;0.86;100.00;97617.78;5078405;28;20399;-73
2021/01/05 01:34:24;;;;;;;378.08;49.22;;;;;;;0.84;100.00;97617.03;5088728;28;20127;-73
2021/01/05 01:36:54;;;;;;;281.92;47.55;;;;;;;0.85;100.00;97623.88;5089631;28;20068;-73
2021/01/05 01:39:20;;;;;;;521.65;51.00;;;;;;;0.82;100.00;97624.00;5072119;28;20051;-73
2021/01/05 01:41:46;;;;;;;248.75;48.95;;;;;;;0.85;100.00;97612.69;5071893;28;20040;-79
2021/01/05 01:44:24;;;;;;;226.35;46.47;;;;;;;0.79;100.00;97615.50;5087883;28;20035;-74
2021/01/05 01:46:53;;;;;;;325.80;49.80;;;;;;;0.84;100.00;97613.59;5090650;28;20044;-73
2021/01/05 01:49:20;;;;;;;166.02;44.17;;;;;;;1.14;100.00;97610.69;5092186;28;20052;-73
2021/01/05 01:51:46;;;;;;;169.35;41.88;;;;;;;1.36;100.00;97602.88;5090474;28;20490;-78
2021/01/05 01:54:48;;;;;;;180.88;43.30;;;;;;;1.21;100.00;97604.38;5091574;28;20135;-74
2021/01/05 01:57:38;;;;;;;521.67;50.33;;;;;;;1.04;100.00;97598.16;5085809;28;20044;-74
2021/01/05 02:00:26;;;;;;;272.52;44.65;;;;;;;1.21;100.00;97589.69;5052677;28;20056;-73
2021/01/05 02:03:10;;;;;;;229.30;41.47;;;;;;;1.07;100.00;97597.19;5067355;28;20056;-73
2021/01/05 02:05:57;;;;;;;135.45;38.60;;;;;;;1.36;100.00;97582.19;5088838;28;20043;-77
2021/01/05 02:08:35;;;;;;;151.80;38.33;;;;;;;1.49;100.00;97587.69;5071621;28;20055;-74
2021/01/05 02:11:13;;;;;;;152.23;37.60;;;;;;;1.35;100.00;97583.97;5052474;28;20045;-73
2021/01/05 02:14:05;;;;;;;545.38;46.30;;;;;;;1.15;100.00;97576.22;5089217;28;20118;-73
2021/01/05 02:16:37;;;;;;;124.45;37.65;;;;;;;1.43;100.00;97578.47;5090517;28;20044;-74
2021/01/05 02:19:20;;;;;;;150.32;37.97;;;;;;;1.25;100.00;97572.31;5087820;28;20539;-74
2021/01/05 02:22:09;;;;;;;161.30;38.05;;;;;;;1.32;100.00;97568.59;5092087;28;20375;-74
2021/01/05 02:24:42;;;;;;;131.70;36.50;;;;;;;1.28;100.00;97563.63;5092456;28;20044;-74
2021/01/05 02:27:10;;;;;;;159.15;38.53;;;;;;;1.40;100.00;97574.25;5086920;28;20047;-80
2021/01/05 02:29:43;;;;;;;144.88;37.58;;;;;;;1.41;100.00;97578.53;5074333;28;20063;-73
2021/01/05 02:32:31;;;;;;;240.77;39.38;;;;;;;1.24;100.00;97563.75;5089980;28;20047;-82
2021/01/05 02:35:45;;;;;;;150.95;36.65;;;;;;;1.30;100.00;97573.00;5087687;28;20170;-74
2021/01/05 02:38:42;;;;;;;208.00;38.58;;;;;;;1.28;100.00;97569.63;5067749;28;20443;-82
2021/01/05 02:41:35;;;;;;;156.85;36.92;;;;;;;1.27;100.00;97560.22;5091772;28;20058;-80
2021/01/05 02:44:45;;;;;;;200.93;40.60;;;;;;;1.22;100.00;97554.38;5080855;28;20048;-73
2021/01/05 02:47:50;;;;;;;184.70;36.78;;;;;;;1.39;100.00;97551.09;5089920;28;20063;-82
2021/01/05 02:50:53;;;;;;;130.95;34.45;;;;;;;1.38;100.00;97550.25;5075679;28;20044;-74
2021/01/05 02:53:22;;;;;;;;;;;;;;;1.25;100.00;97549.09;5075603;28;20540;-74
2021/01/05 02:56:32;;;;;;;120.80;34.10;;;;;;;1.59;100.00;97543.31;5091869;28;19958;-73
2021/01/05 02:59:30;;;;;;;145.82;35.78;;;;;;;1.39;100.00;97531.28;5071860;28;20044;-74
2021/01/05 03:02:14;;;;;;;134.65;35.13;;;;;;;1.47;100.00;97528.38;5071589;28;20040;-73
2021/01/05 03:04:40;;;;;;;106.45;35.25;;;;;;;1.46;100.00;97523.25;5070392;28;20380;-75
2021/01/05 03:07:15;;;;;;;169.30;36.47;;;;;;;1.64;100.00;97522.44;5091844;28;20066;-72
2021/01/05 03:10:02;;;;;;;123.68;35.28;;;;;;;1.49;100.00;97523.97;5079676;28;20086;-75
2021/01/05 03:12:54;;;;;;;123.63;36.50;;;;;;;1.46;100.00;97521.50;5050632;28;20052;-73
2021/01/05 03:16:01;;;;;;;117.75;35.45;;;;;;;1.72;100.00;97522.09;5050201;28;20052;-74
2021/01/05 03:18:54;;;;;;;113.90;34.30;;;;;;;1.51;100.00;97518.72;5059780;28;20139;-73
2021/01/05 03:21:28;;;;;;;126.77;34.33;;;;;;;1.50;100.00;97512.72;5076545;28;20040;-74
2021/01/05 03:23:57;;;;;;;104.70;35.08;;;;;;;1.35;100.00;97509.06;5091797;28;20365;-74
2021/01/05 03:26:34;;;;;;;104.22;35.38;;;;;;;1.40;100.00;97512.28;5090669;28;20440;-74
2021/01/05 03:29:00;;;;;;;113.60;34.47;;;;;;;1.40;100.00;97516.59;5076744;28;20032;-78
2021/01/05 03:31:36;;;;;;;96.70;33.67;;;;;;;1.71;100.00;97512.66;5077413;28;20049;-74
2021/01/05 03:34:03;;;;;;;78.72;32.15;;;;;;;1.45;100.00;97506.06;5068901;28;20036;-75
2021/01/05 03:36:29;;;;;;;90.72;34.28;;;;;;;1.51;100.00;97498.88;5068018;28;20081;-74
2021/01/05 03:38:56;;;;;;;125.60;37.38;;;;;;;1.45;100.00;97500.91;5054234;28;20528;-73
2021/01/05 03:41:22;;;;;;;99.88;34.92;;;;;;;1.48;100.00;97500.78;5085180;28;20044;-73
2021/01/05 03:43:47;;;;;;;110.55;34.78;;;;;;;1.53;100.00;97497.09;5094397;28;20048;-73
2021/01/05 03:46:13;;;;;;;122.80;34.28;;;;;;;1.55;100.00;97491.84;5095174;28;20044;-80
2021/01/05 03:48:40;;;;;;;123.03;35.63;;;;;;;1.40;100.00;97489.03;5088758;28;20557;-73
2021/01/05 03:51:05;;;;;;;115.10;34.45;;;;;;;1.61;100.00;97483.84;5095086;28;20048;-73
2021/01/05 03:53:31;;;;;;;86.38;32.00;;;;;;;1.71;100.00;97485.06;5092424;28;20044;-73
2021/01/05 03:55:57;;;;;;;149.05;33.60;;;;;;;1.61;100.00;97482.06;5095100;28;20475;-73
2021/01/05 03:58:23;;;;;;;91.65;30.23;;;;;;;1.69;100.00;97484.31;5092505;28;20091;-73
2021/01/05 04:00:48;;;;;;;91.80;30.00;;;;;;;1.69;100.00;97478.31;5094948;28;20062;-74
2021/01/05 04:03:15;;;;;;;89.90;30.92;;;;;;;1.72;100.00;97481.59;5093480;28;20126;-80
2021/01/05 04:05:40;;;;;;;117.28;31.13;;;;;;;1.73;100.00;97469.50;5094070;28;20043;-73
2021/01/05 04:08:06;;;;;;;80.80;28.65;;;;;;;1.73;100.00;97472.09;5091103;28;20089;-73
2021/01/05 04:10:32;;;;;;;71.10;26.98;;;;;;;1.86;100.00;97470.63;5094119;28;20040;-73
2021/01/05 04:12:58;;;;;;;73.72;26.98;;;;;;;1.77;100.00;97469.28;5080039;28;20067;-73
2021/01/05 04:15:27;;;;;;;96.55;29.52;;;;;;;1.53;100.00;97476.44;5088876;28;20048;-73
2021/01/05 04:17:56;;;;;;;62.90;26.30;;;;;;;1.67;100.00;97470.63;5090034;28;20040;-74
2021/01/05 04:20:23;;;;;;;61.95;26.70;;;;;;;1.73;100.00;97470.34;5072630;28;20769;-73
2021/01/05 04:22:49;;;;;;;62.40;25.27;;;;;;;1.79;100.00;97467.50;5092022;28;20044;-74
2021/01/05 04:25:17;;;;;;;62.33;24.20;;;;;;;1.92;100.00;97474.69;5093536;28;20487;-74
2021/01/05 04:27:43;;;;;;;65.40;25.85;;;;;;;1.78;100.00;97463.22;5081870;28;20093;-74
2021/01/05 04:30:19;;;;;;;58.65;24.60;;;;;;;1.83;100.00;97467.34;5074230;28;20056;-73
2021/01/05 04:32:45;;;;;;;65.70;24.55;;;;;;;1.64;100.00;97463.03;5072959;28;20036;-73
2021/01/05 04:35:11;;;;;;;62.63;25.58;;;;;;;1.71;100.00;97464.41;5087510;28;20051;-73
2021/01/05 04:37:37;;;;;;;61.63;24.02;;;;;;;1.97;100.00;97452.03;5089466;28;20102;-73
2021/01/05 04:40:05;;;;;;;55.03;22.23;;;;;;;2.02;100.00;97457.81;5073944;28;20507;-74
2021/01/05 04:42:37;;;;;;;48.90;20.30;;;;;;;1.93;100.00;97451.34;5064490;28;20044;-74
2021/01/05 04:45:11;;;;;;;62.83;23.02;;;;;;;1.88;100.00;97449.88;5088384;28;20067;-74
2021/01/05 04:47:55;;;;;;;53.65;23.30;;;;;;;1.96;100.00;97458.09;5075469;28;20113;-76
2021/01/05 04:50:42;;;;;;;50.38;21.30;;;;;;;1.96;100.00;97451.19;5054572;28;20366;-74
2021/01/05 04:53:21;;;;;;;46.15;22.08;;;;;;;1.97;100.00;97446.84;5074911;28;20053;-73
2021/01/05 04:55:56;;;;;;;52.30;22.33;;;;;;;1.82;100.00;97448.41;5053554;28;20369;-74
2021/01/05 04:58:54;;;;;;;42.42;20.65;;;;;;;1.96;100.00;97438.28;5077739;28;20403;-80
2021/01/05 05:01:24;;;;;;;50.35;19.50;;;;;;;2.00;100.00;97436.38;5076802;28;20058;-78
2021/01/05 05:04:15;;;;;;;50.35;19.92;;;;;;;1.85;100.00;97434.50;5092280;28;20131;-74
2021/01/05 05:06:53;;;;;;;41.60;19.27;;;;;;;1.95;100.00;97431.41;5092912;28;20055;-72
2021/01/05 05:09:34;;;;;;;37.70;18.15;;;;;;;1.97;100.00;97432.16;5092341;28;20483;-78
2021/01/05 05:12:07;;;;;;;28.30;15.57;;;;;;;2.01;100.00;97432.88;5087487;28;20492;-74
2021/01/05 05:14:57;;;;;;;34.65;16.75;;;;;;;1.78;100.00;97434.78;5082085;28;20055;-73
2021/01/05 05:17:39;;;;;;;37.63;17.98;;;;;;;1.81;100.00;97428.66;5092964;28;20105;-80
2021/01/05 05:20:54;;;;;;;35.35;16.15;;;;;;;1.81;100.00;97432.97;5087349;28;20071;-70
2021/01/05 05:24:01;;;;;;;31.77;16.02;;;;;;;1.70;100.00;97433.47;5060155;28;20054;-73
2021/01/05 05:26:47;;;;;;;35.35;15.25;;;;;;;1.77;100.00;97429.69;5073606;28;20048;-74
2021/01/05 05:29:31;;;;;;;26.52;14.57;;;;;;;1.85;100.00;97429.34;5073044;28;20041;-73
2021/01/05 05:32:02;;;;;;;27.75;14.43;;;;;;;1.85;100.00;97425.00;5072142;28;20056;-74
2021/01/05 05:34:30;;;;;;;23.67;13.80;;;;;;;1.95;100.00;97422.84;5071786;28;20055;-74
2021/01/05 05:37:00;;;;;;;23.85;14.25;;;;;;;1.87;100.00;97420.63;5071907;28;20045;-73
2021/01/05 05:39:35;;;;;;;32.72;14.65;;;;;;;1.83;100.00;97420.81;5071926;28;20409;-75
2021/01/05 05:42:31;;;;;;;31.13;14.80;;;;;;;1.79;100.00;97420.97;5073494;28;20051;-73
2021/01/05 05:45:06;;;;;;;24.50;14.20;;;;;;;1.78;100.00;97427.03;5072645;28;20499;-73
2021/01/05 05:47:40;;;;;;;26.33;14.60;;;;;;;1.71;100.00;97422.22;5070202;28;20052;-74
2021/01/05 05:50:18;;;;;;;22.65;14.07;;;;;;;1.90;100.00;97417.88;5071571;28;20387;-73
2021/01/05 05:52:52;;;;;;;31.83;15.00;;;;;;;1.60;100.00;97420.13;5071104;28;20104;-74
2021/01/05 05:55:26;;;;;;;23.08;13.98;;;;;;;1.76;100.00;97422.84;5071672;28;20048;-73
2021/01/05 05:57:57;;;;;;;24.13;13.68;;;;;;;1.89;100.00;97415.38;5072260;28;20093;-73
2021/01/05 06:00:26;;;;;;;23.55;14.48;;;;;;;1.75;100.00;97422.00;5072521;28;20051;-81
2021/01/05 06:02:52;;;;;;;28.52;14.55;;;;;;;1.79;100.00;97410.63;5071399;28;20060;-82
2021/01/05 06:05:27;;;;;;;24.55;13.70;;;;;;;1.83;100.00;97415.66;5072864;28;20471;-81
2021/01/05 06:07:54;;;;;;;22.80;13.98;;;;;;;1.99;100.00;97415.75;5066290;28;20070;-81
2021/01/05 06:10:20;;;;;;;21.60;12.80;;;;;;;1.90;100.00;97412.72;5072695;28;20051;-73
2021/01/05 06:12:45;;;;;;;32.25;14.02;;;;;;;1.59;100.00;97408.13;5071062;28;20240;-73
2021/01/05 06:15:12;;;;;;;28.35;14.45;;;;;;;1.81;100.00;97402.81;5072367;28;20097;-72
2021/01/05 06:17:37;;;;;;;27.80;14.25;;;;;;;1.67;100.00;97406.03;5070956;28;20538;-72
2021/01/05 06:20:04;;;;;;;24.23;13.77;;;;;;;1.70;100.00;97411.06;5072093;28;20048;-74
2021/01/05 06:22:30;;;;;;;25.25;14.55;;;;;;;1.81;100.00;97412.28;5067820;28;20051;-70
2021/01/05 06:24:55;;;;;;;21.25;13.18;;;;;;;1.76;100.00;97400.44;5069759;28;20041;-76
2021/01/05 06:27:21;;;;;;;28.75;14.75;;;;;;;1.55;100.00;97401.44;5062768;28;20040;-72
2021/01/05 06:29:47;;;;;;;29.35;14.73;;;;;;;1.76;100.00;97408.19;5056098;28;20170;-73
2021/01/05 06:32:13;;;;;;;26.60;14.60;;;;;;;1.82;100.00;97404.47;5052147;28;20048;-75
2021/01/05 06:34:38;;;;;;;22.50;12.90;;;;;;;1.92;100.00;97407.47;5055811;28;20038;-73
2021/01/05 06:37:04;;;;;;;21.60;12.35;;;;;;;1.82;100.00;97409.63;5067477;28;20045;-70
2021/01/05 06:39:30;;;;;;;20.48;12.85;;;;;;;1.83;100.00;97400.97;5057772;28;20446;-69
2021/01/05 06:41:55;;;;;;;22.30;12.85;;;;;;;1.86;100.00;97405.19;5072327;28;20146;-72
2021/01/05 06:44:21;;;;;;;22.90;12.82;;;;;;;1.94;100.00;97403.06;5071769;28;20094;-70
2021/01/05 06:46:50;;;;;;;21.02;12.20;;;;;;;1.83;100.00;97400.16;5071294;28;20127;-71
2021/01/05 06:49:16;;;;;;;26.85;14.40;;;;;;;1.83;100.00;97397.56;5072078;28;20036;-71
2021/01/05 06:51:42;;;;;;;18.70;11.88;;;;;;;1.89;100.00;97399.88;5071945;28;20400;-71
2021/01/05 06:54:08;;;;;;;18.95;11.57;;;;;;;1.88;100.00;97398.19;5071763;28;20090;-70
2021/01/05 06:56:56;;;;;;;20.52;11.77;;;;;;;1.85;100.00;97395.75;5071922;28;20446;-70
2021/01/05 06:59:23;;;;;;;19.08;12.20;;;;;;;1.89;100.00;97392.94;5071610;28;20101;-70
2021/01/05 07:01:56;;;;;;;20.98;12.10;;;;;;;1.79;100.00;97392.53;5071134;28;20503;-71
2021/01/05 07:04:23;;;;;;;16.98;11.07;;;;;;;1.77;100.00;97404.69;5071967;28;20055;-68
2021/01/05 07:06:49;;;;;;;19.80;11.93;;;;;;;1.89;100.00;97398.09;5070892;28;20652;-70
2021/01/05 07:09:17;;;;;;;18.42;11.30;;;;;;;1.83;100.00;97393.22;5072366;28;20044;-70
2021/01/05 07:11:43;;;;;;;22.13;11.48;;;;;;;1.64;100.00;97389.81;5071121;28;20040;-70
2021/01/05 07:14:11;;;;;;;18.80;11.05;;;;;;;1.93;100.00;97391.88;5070202;28;20033;-70
2021/01/05 07:16:36;;;;;;;17.83;11.07;;;;;;;1.79;100.00;97387.38;5069930;28;20053;-70
2021/01/05 07:19:02;;;;;;;20.83;11.75;;;;;;;1.93;100.00;97384.13;5070740;28;20526;-70
2021/01/05 07:21:28;;;;;;;17.17;10.77;;;;;;;2.00;100.00;97384.66;5071940;28;20052;-71
2021/01/05 07:23:53;;;;;;;17.73;10.70;;;;;;;1.90;100.00;97380.84;5071044;28;20097;-71
2021/01/05 07:26:19;;;;;;;18.15;10.32;;;;;;;1.84;100.00;97381.13;5071656;28;20041;-71
2021/01/05 07:28:45;;;;;;;18.23;10.52;;;;;;;1.70;100.00;97374.91;5071150;28;20063;-71
2021/01/05 07:31:11;;;;;;;17.20;10.98;;;;;;;1.53;100.00;97383.44;5071095;28;20067;-70
2021/01/05 07:33:39;;;;;;;23.75;12.15;;;;;;;1.76;100.00;97376.34;5070199;28;20052;-71
2021/01/05 07:36:17;;;;;;;15.57;10.65;;;;;;;2.02;100.00;97380.25;5071999;28;20056;-70
2021/01/05 07:38:43;;;;;;;19.02;11.32;;;;;;;1.72;100.00;97375.66;5085822;28;20045;-71
2021/01/05 07:41:08;;;;;;;22.58;11.65;;;;;;;1.79;100.00;97371.00;5071874;28;20041;-70
2021/01/05 07:43:34;;;;;;;22.70;11.90;;;;;;;1.91;100.00;97367.00;5070874;28;20045;-80
2021/01/05 07:46:00;;;;;;;22.08;11.82;;;;;;;1.94;100.00;97364.28;5071513;28;20101;-70
2021/01/05 07:48:26;;;;;;;14.38;8.85;;;;;;;1.87;100.00;97363.75;5071597;28;20067;-71
2021/01/05 07:50:51;;;;;;;11.10;7.30;;;;;;;1.89;100.00;97353.34;5070802;28;20032;-70
2021/01/05 07:53:17;;;;;;;13.27;7.90;;;;;;;1.79;100.00;97365.84;5071349;28;20101;-70
2021/01/05 07:55:43;;;;;;;13.90;7.95;;;;;;;1.72;100.00;97361.91;5070930;28;20127;-71
2021/01/05 07:58:08;;;;;;;13.55;8.70;;;;;;;1.87;100.00;97360.31;5071131;28;20496;-70
2021/01/05 08:00:34;;;;;;;12.82;7.88;;;;;;;1.85;100.00;97360.38;5071150;28;20053;-81
2021/01/05 08:03:00;;;;;;;12.20;8.25;;;;;;;1.87;100.00;97349.97;5071296;28;20052;-70
2021/01/05 08:05:28;;;;;;;11.95;7.22;;;;;;;1.78;100.00;97362.44;5070916;28;20052;-70
2021/01/05 08:07:55;;;;;;;10.07;6.60;;;;;;;2.05;100.00;97353.41;5071078;28;20051;-70
2021/01/05 08:10:28;;;;;;;13.15;7.63;;;;;;;1.75;100.00;97354.00;5071296;28;20078;-70
2021/01/05 08:12:54;;;;;;;17.05;8.30;;;;;;;1.86;100.00;97354.31;5070187;28;20036;-70
2021/01/05 08:15:26;;;;;;;17.15;8.35;;;;;;;1.78;100.00;97357.28;5069934;28;20102;-70
2021/01/05 08:17:52;;;;;;;16.27;8.55;;;;;;;1.91;100.00;97354.91;5071150;28;20048;-70
2021/01/05 08:20:28;;;;;;;14.65;8.25;;;;;;;2.01;100.00;97355.31;5074818;28;20508;-70
2021/01/05 08:22:55;;;;;;;14.25;7.53;;;;;;;1.86;100.00;97356.91;5075530;28;20049;-70
2021/01/05 08:25:22;;;;;;;13.88;7.40;;;;;;;1.92;100.00;97351.44;5074614;28;20072;-74
2021/01/05 08:27:49;;;;;;;15.77;8.43;;;;;;;1.95;100.00;97340.13;5072969;28;20040;-70
2021/01/05 08:30:20;;;;;;;16.10;9.38;;;;;;;1.87;100.00;97344.81;5074162;28;20474;-71
2021/01/05 08:32:46;;;;;;;15.70;8.93;;;;;;;1.82;100.00;97354.53;5088939;28;20064;-70
2021/01/05 08:35:13;;;;;;;21.88;9.75;;;;;;;1.84;100.00;97347.53;5090141;28;20068;-70
2021/01/05 08:37:40;;;;;;;15.40;8.57;;;;;;;1.86;100.00;97348.31;5073417;28;20060;-72
2021/01/05 08:40:09;;;;;;;15.52;8.48;;;;;;;1.83;100.00;97348.47;5073861;28;20071;-70
2021/01/05 08:42:35;;;;;;;16.40;8.45;;;;;;;1.83;100.00;97343.31;5074348;28;20055;-70
2021/01/05 08:45:01;;;;;;;22.85;8.93;;;;;;;1.81;100.00;97343.38;5073617;28;20506;-70
2021/01/05 08:47:27;;;;;;;17.80;9.13;;;;;;;1.69;100.00;97342.19;5074499;28;20056;-70
2021/01/05 08:49:53;;;;;;;16.48;9.00;;;;;;;1.75;100.00;97339.31;5073652;28;20048;-70
2021/01/05 08:52:20;;;;;;;16.35;9.00;;;;;;;1.83;100.00;97335.53;5074185;28;20040;-70
2021/01/05 08:54:46;;;;;;;16.33;9.75;;;;;;;1.67;100.00;97332.84;5055279;28;20123;-70
2021/01/05 08:57:15;;;;;;;15.82;9.43;;;;;;;1.62;100.00;97330.47;5074046;28;20066;-70
2021/01/05 08:59:45;;;;;;;13.07;7.90;;;;;;;1.72;100.00;97330.91;5073512;28;20159;-70
2021/01/05 09:02:10;;;;;;;15.13;8.38;;;;;;;1.77;100.00;97329.75;5074014;28;20093;-70
2021/01/05 09:04:36;;;;;;;15.55;8.20;;;;;;;1.84;100.00;97324.28;5074182;28;20060;-70
2021/01/05 09:07:03;;;;;;;14.38;8.43;;;;;;;1.76;100.00;97325.50;5073432;28;20049;-70
2021/01/05 09:09:29;;;;;;;14.35;7.68;;;;;;;1.85;100.00;97321.63;5073994;28;20559;-70
2021/01/05 09:11:56;;;;;;;14.02;7.72;;;;;;;1.64;100.00;97320.94;5073719;28;20120;-70
2021/01/05 09:14:23;;;;;;;13.57;6.90;;;;;;;1.55;100.00;97331.69;5072897;28;20146;-69
2021/01/05 09:16:54;;;;;;;14.00;7.20;;;;;;;1.72;100.00;97329.13;5073177;28;20052;-69
2021/01/05 09:19:20;;;;;;;13.57;6.72;;;;;;;1.60;100.00;97327.13;5073827;28;20044;-70
2021/01/05 09:21:47;;;;;;;10.73;6.90;;;;;;;1.59;100.00;97326.31;5065903;28;20055;-73
2021/01/05 09:24:13;;;;;;;12.63;6.65;;;;;;;1.71;100.00;97322.28;5053650;28;20073;-71
2021/01/05 09:26:39;;;;;;;12.25;6.65;;;;;;;1.35;100.00;97327.47;5063642;28;20048;-76
2021/01/05 09:29:07;;;;;;;12.43;7.47;;;;;;;1.69;100.00;97326.69;5073300;28;20040;-70
2021/01/05 09:31:38;;;;;;;15.48;8.43;;;;;;;1.39;100.00;97319.50;5073141;28;20045;-70
2021/01/05 09:34:04;;;;;;;12.55;7.47;;;;;;;1.49;100.00;97321.66;5072788;28;20044;-73
2021/01/05 09:36:32;;;;;;;14.20;8.07;;;;;;;1.56;100.00;97320.44;5072370;28;20041;-73
2021/01/05 09:38:59;;;;;;;12.50;7.45;;;;;;;1.45;100.00;97317.53;5072930;28;20385;-72
2021/01/05 09:41:27;;;;;;;14.50;8.52;;;;;;;1.84;100.00;97325.13;5073376;28;20094;-72
2021/01/05 09:43:53;;;;;;;13.50;7.57;;;;;;;1.57;100.00;97307.44;5072056;28;20108;-72
2021/01/05 09:46:20;;;;;;;12.38;7.22;;;;;;;1.44;100.00;97311.53;5073166;28;20135;-71
2021/01/05 09:48:47;;;;;;;15.57;9.27;;;;;;;1.51;100.00;97318.06;5072341;28;20158;-71
2021/01/05 09:51:29;;;;;;;11.57;6.78;;;;;;;1.51;100.00;97319.81;5072885;28;20127;-70
2021/01/05 09:53:55;;;;;;;14.20;8.15;;;;;;;1.53;100.00;97315.41;5072292;28;20490;-71
2021/01/05 09:56:21;;;;;;;14.85;7.60;;;;;;;1.31;100.00;97307.84;5072890;28;20049;-71
2021/01/05 09:58:47;;;;;;;14.95;8.55;;;;;;;1.34;100.00;97308.53;5072363;28;20049;-70
2021/01/05 10:01:13;;;;;;;14.10;7.63;;;;;;;1.72;100.00;97305.88;5072841;28;20046;-70
2021/01/05 10:03:40;;;;;;;13.68;7.78;;;;;;;1.49;100.00;97288.09;5071730;28;20151;-69
2021/01/05 10:06:06;;;;;;;14.38;8.57;;;;;;;1.35;100.00;97292.16;5072308;28;20048;-71
2021/01/05 10:08:32;;;;;;;14.38;7.93;;;;;;;1.60;100.00;97288.38;5072556;28;20407;-75
2021/01/05 10:10:58;;;;;;;12.52;6.95;;;;;;;1.40;100.00;97295.34;5072257;28;20119;-74
2021/01/05 10:13:23;;;;;;;12.65;7.53;;;;;;;1.58;100.00;97282.47;5072841;28;20136;-73
2021/01/05 10:15:49;;;;;;;11.68;7.18;;;;;;;1.39;100.00;97282.50;5071124;28;20475;-70
2021/01/05 10:18:15;;;;;;;12.90;7.82;;;;;;;1.21;100.00;97285.03;5072623;28;20049;-70
2021/01/05 10:20:41;;;;;;;16.63;9.02;;;;;;;1.19;100.00;97281.72;5072770;28;20487;-70
2021/01/05 10:23:07;;;;;;;17.35;9.23;;;;;;;1.21;100.00;97279.06;5072345;28;20041;-70
2021/01/05 10:25:33;;;;;;;16.27;10.13;;;;;;;1.23;100.00;97277.22;5088440;28;20549;-70
2021/01/05 10:27:58;;;;;;;14.93;8.95;;;;;;;1.43;100.00;97269.38;5071403;28;20381;-70
2021/01/05 10:30:24;;;;;;;13.32;8.13;;;;;;;1.37;100.00;97269.66;5072533;28;20048;-70
2021/01/05 10:32:50;;;;;;;17.05;9.38;;;;;;;1.32;100.00;97274.22;5071735;28;20163;-74
2021/01/05 10:35:19;;;;;;;17.85;9.55;;;;;;;1.28;100.00;97280.41;5072328;28;20094;-73
2021/01/05 10:37:46;;;;;;;17.50;10.73;;;;;;;1.09;100.00;97277.03;5072589;28;20066;-78
2021/01/05 10:40:13;;;;;;;18.02;10.80;;;;;;;0.97;100.00;97273.28;5071116;28;20044;-73
2021/01/05 10:42:42;;;;;;;18.25;11.65;;;;;;;1.30;100.00;97270.88;5072292;28;20048;-72
2021/01/05 10:45:14;;;;;;;20.25;11.55;;;;;;;1.23;100.00;97272.88;5071785;28;20079;-72
2021/01/05 10:47:40;;;;;;;19.05;12.10;;;;;;;1.34;100.00;97274.97;5067473;28;20041;-73
2021/01/05 10:50:11;;;;;;;20.02;11.98;;;;;;;1.27;100.00;97272.75;5052163;28;20187;-71
2021/01/05 10:52:37;;;;;;;22.00;12.52;;;;;;;1.28;100.00;97264.94;5064618;28;20063;-72
2021/01/05 10:55:04;;;;;;;22.25;12.43;;;;;;;1.38;100.00;97257.59;5070949;28;20040;-72
2021/01/05 10:57:30;;;;;;;22.20;12.18;;;;;;;1.16;100.00;97265.50;5071982;28;20044;-71
2021/01/05 10:59:56;;;;;;;21.95;12.60;;;;;;;1.31;100.00;97261.38;5071400;28;20052;-71
2021/01/05 11:02:22;;;;;;;23.90;13.02;;;;;;;1.40;100.00;97254.00;5071925;28;20045;-74
2021/01/05 11:04:48;;;;;;;23.25;12.98;;;;;;;1.47;100.00;97264.91;5071695;28;20066;-80
2021/01/05 11:07:16;;;;;;;28.45;13.65;;;;;;;1.40;100.00;97251.44;5071440;28;20059;-71
2021/01/05 11:09:43;;;;;;;27.25;13.35;;;;;;;1.51;100.00;97245.75;5071788;28;20040;-71
2021/01/05 11:12:12;;;;;;;26.73;14.52;;;;;;;1.35;100.00;97250.00;5071426;28;20052;-72
2021/01/05 11:14:41;;;;;;;28.20;15.75;;;;;;;1.28;100.00;97253.78;5071662;28;20060;-72
2021/01/05 11:17:08;;;;;;;22.17;14.60;;;;;;;1.12;100.00;97254.50;5070902;28;20733;-71
2021/01/05 11:19:35;;;;;;;21.17;12.80;;;;;;;1.42;100.00;97252.22;5071939;28;20055;-72
2021/01/05 11:22:04;;;;;;;22.40;13.40;;;;;;;1.45;100.00;97255.56;5071546;28;20178;-70
2021/01/05 11:24:30;;;;;;;23.80;12.82;;;;;;;1.31;100.00;97251.88;5071684;28;20063;-72
2021/01/05 11:26:57;;;;;;;24.67;13.30;;;;;;;1.35;100.00;97250.00;5071112;28;20036;-72
2021/01/05 11:29:24;;;;;;;21.35;11.80;;;;;;;1.42;100.00;97244.47;5070251;28;20040;-73
2021/01/05 11:32:00;;;;;;;18.10;11.10;;;;;;;1.50;100.00;97251.00;5071312;28;20503;-76
2021/01/05 11:34:26;;;;;;;20.08;11.13;;;;;;;1.56;100.00;97237.78;5072058;28;20044;-70